Averill, Minnesota
Current Conditions -  °F | °C
As of 3:14 AM on Monday 20 Oct 2014 (Local Time) from KJKJ Reporting Station
Clear Clear  
Wind Chill: 43°   Ceiling: Unl
Heat Index: 43°   Visibility: 10mi
Dew Point: 41°   Wind: 0mph
Humidity: 93%   Direction: NA
Pressure: 29.98"   Gusts: NA
Location:  46.8905°N, 96.5417°W
Report Text: KJKJ 200814Z AUTO 00000KT 10SM CLR 06/05 A2998 RMK AO2
Loading
Personal Weather Stations






























Interactive Weather Map
Tropical Storm Tracking
New forecast layout! Learn more

10-Day Weather Forecast

Advertisements
Track Severe Weather on mobile